Gaz Venture — 3FLQ4 — position and weather

sailwx.info

Track history (hours):
 
Tides and Currents Weather Stations Pressure Air Temp Water Temp Dewpoint Dewpoint Depression Visibility Wind Speed Wind Dir Waves Ship Positions

Gaz Venture

Last reported at 2014-Sep-21 15:25 UTC. Time now 2014-Sep-22 22:15 UTC.
Position N 32°56' E 013°11'.

Length 120 m; draft 6.4 m.

Type: Ship. MMSI: 356141000.

Date/timePositionNaut miles runAvg speedWind from/ knotsBaromVisibWave heightAir tempDewpointWater temp
2014-Sep-21 15:25N 32°56' E 013°11'0 0.0
2014-Sep-21 14:31N 32°56' E 013°11'0 0.0
2014-Sep-21 13:22N 32°56' E 013°11'0 0.0
2014-Sep-21 12:31N 32°56' E 013°11'0 0.0
2014-Sep-21 11:28N 32°56' E 013°11'0 0.0
2014-Sep-21 10:31N 32°56' E 013°11'0 0.0
2014-Sep-21 09:31N 32°56' E 013°11'0 0.1
2014-Sep-21 08:31N 32°56' E 013°11'0 0.0
2014-Sep-21 07:25N 32°56' E 013°11'0 0.0
2014-Sep-21 06:28N 32°57' E 013°11'0 0.0
2014-Sep-21 05:28N 32°57' E 013°11'0 0.0
2014-Sep-21 03:10N 32°57' E 013°11'0 0.0
2014-Sep-21 02:04N 32°57' E 013°11'0 0.0
2014-Sep-21 01:28N 32°57' E 013°11'0 0.1
2014-Sep-21 00:31N 32°56' E 013°11'0 0.0
2014-Sep-20 23:31N 32°56' E 013°11'0 0.0
2014-Sep-20 21:25N 32°57' E 013°11'0 0.0
2014-Sep-20 20:28N 32°57' E 013°11'43 8.4
2014-Sep-20 15:17N 32°58' E 014°03'2816.3
2014-Sep-20 13:33N 32°46' E 014°33'1817.0
2014-Sep-20 12:30N 32°39' E 014°53'1616.5
2014-Sep-20 11:33N 32°33' E 015°10'1111.0
2014-Sep-20 10:33N 32°22' E 015°13'0 0.0
2014-Sep-18 23:11N 32°22' E 015°13'4 0.2
2014-Sep-18 02:33N 32°22' E 015°18'0 0.0
2014-Sep-18 01:09N 32°22' E 015°18'0 0.0
2014-Sep-17 16:27N 32°22' E 015°18'0 0.0
2014-Sep-16 20:27N 32°22' E 015°18'0 0.0
2014-Sep-16 19:27N 32°22' E 015°18'0 0.0
2014-Sep-16 16:27N 32°22' E 015°18'0 0.0
2014-Sep-16 15:27N 32°22' E 015°18'0 0.0
2014-Sep-16 14:33N 32°22' E 015°18'0 0.0
2014-Sep-16 13:21N 32°22' E 015°18'0 0.0
2014-Sep-16 07:24N 32°22' E 015°18'0 0.0
2014-Sep-16 04:12N 32°22' E 015°18'0 0.0
2014-Sep-16 02:12N 32°22' E 015°18'0 0.0
2014-Sep-16 01:15N 32°22' E 015°18'0 0.0
2014-Sep-16 00:09N 32°22' E 015°18'0 0.0
2014-Sep-15 23:27N 32°22' E 015°18'0 0.0
2014-Sep-15 22:12N 32°22' E 015°18'0 0.0
2014-Sep-15 20:30N 32°22' E 015°18'0 0.0
2014-Sep-15 18:33N 32°22' E 015°18'0 0.0
2014-Sep-15 17:27N 32°22' E 015°18'0 0.0
2014-Sep-15 15:24N 32°22' E 015°18'0 0.0
2014-Sep-15 14:33N 32°22' E 015°18'0 0.0
2014-Sep-15 13:33N 32°22' E 015°18'0 0.0
2014-Sep-15 12:33N 32°22' E 015°18'0 0.0
2014-Sep-15 11:33N 32°22' E 015°18'0 0.0
2014-Sep-15 10:24N 32°22' E 015°18'0 0.0
2014-Sep-15 07:18N 32°22' E 015°18'0 0.0
2014-Sep-15 06:27N 32°22' E 015°18'0 0.0
2014-Sep-14 21:33N 32°22' E 015°18'0 0.0
2014-Sep-14 20:31N 32°22' E 015°18'0 0.0
2014-Sep-14 19:14N 32°22' E 015°18'0 0.0
2014-Sep-14 17:34N 32°22' E 015°18'0 0.0
2014-Sep-14 16:33N 32°22' E 015°18'0 0.0
2014-Sep-14 15:33N 32°22' E 015°18'0 0.0
2014-Sep-14 14:19N 32°22' E 015°18'0 0.0
2014-Sep-14 13:21N 32°22' E 015°18'0 0.0
2014-Sep-14 12:33N 32°22' E 015°18'7612.2
2014-Sep-14 06:17N 33°38' E 015°09'1114.7
2014-Sep-14 05:33N 33°49' E 015°08'1514.7
2014-Sep-14 04:32N 34°04' E 015°06'4514.7
2014-Sep-14 01:29N 34°48' E 015°01'5714.6
2014-Sep-13 21:33N 35°46' E 014°57'1111.3
2014-Sep-13 20:33N 35°57' E 014°59'7 5.8
2014-Sep-13 19:22N 35°59' E 014°51'0 0.2
2014-Sep-13 18:30N 35°59' E 014°51'0 0.0
2014-Sep-13 17:27N 35°59' E 014°51'0 0.0
2014-Sep-13 16:21N 35°59' E 014°51'6 6.9
2014-Sep-13 15:31N 35°58' E 014°44'5 5.6
2014-Sep-13 14:33N 35°57' E 014°38'1 0.9
2014-Sep-13 13:33N 35°58' E 014°37'9 9.0
2014-Sep-13 12:33N 35°52' E 014°45'4 4.1
2014-Sep-13 11:32N 35°50' E 014°49'0 0.0
2014-Sep-13 10:32N 35°49' E 014°49'0 0.0
2014-Sep-13 08:20N 35°49' E 014°49'0 0.0
2014-Sep-13 06:29N 35°49' E 014°49'0 0.0
2014-Sep-13 04:26N 35°49' E 014°49'0 0.0
2014-Sep-13 03:11N 35°49' E 014°49'0 0.0
2014-Sep-13 02:32N 35°49' E 014°49'0 0.0
2014-Sep-13 01:29N 35°49' E 014°49'0 0.0
2014-Sep-13 00:32N 35°49' E 014°49'0 0.0
2014-Sep-12 23:29N 35°49' E 014°49'0 0.0
2014-Sep-12 22:08N 35°49' E 014°49'0 0.0
2014-Sep-12 21:29N 35°49' E 014°49'0 0.1
2014-Sep-12 20:18N 35°49' E 014°49'911.9
2014-Sep-12 19:33N 35°41' E 014°45'1414.5
2014-Sep-12 18:33N 35°28' E 014°37'5814.4
2014-Sep-12 14:30N 34°41' E 013°55'1814.3
2014-Sep-12 13:15N 34°28' E 013°40'4514.4
2014-Sep-12 10:05N 33°52' E 013°08'2514.1
2014-Sep-12 08:18N 33°34' E 012°46'1114.4
2014-Sep-12 07:33N 33°26' E 012°37'1414.1
2014-Sep-12 06:33N 33°18' E 012°23'10 3.5
2014-Sep-12 03:33N 33°12' E 012°33'1614.4
2014-Sep-12 02:28N 32°60' E 012°22'  
Track history (hours):
 
Tides and Currents Weather Stations Pressure Air Temp Water Temp Dewpoint Dewpoint Depression Visibility Wind Speed Wind Dir Waves Ship Positions

Gaz Venture

Last reported at 2014-Sep-21 15:25 UTC. Time now 2014-Sep-22 22:15 UTC.
Position N 32°56' E 013°11'.

Length 120 m; draft 6.4 m.

Type: Ship. MMSI: 356141000.

Date/timePositionNaut miles runAvg speedWind from/ knotsBaromVisibWave heightAir tempDewpointWater temp
2014-Sep-21 15:25N 32°56' E 013°11'0 0.0
2014-Sep-21 14:31N 32°56' E 013°11'0 0.0
2014-Sep-21 13:22N 32°56' E 013°11'0 0.0
2014-Sep-21 12:31N 32°56' E 013°11'0 0.0
2014-Sep-21 11:28N 32°56' E 013°11'0 0.0
2014-Sep-21 10:31N 32°56' E 013°11'0 0.0
2014-Sep-21 09:31N 32°56' E 013°11'0 0.1
2014-Sep-21 08:31N 32°56' E 013°11'0 0.0
2014-Sep-21 07:25N 32°56' E 013°11'0 0.0
2014-Sep-21 06:28N 32°57' E 013°11'0 0.0
2014-Sep-21 05:28N 32°57' E 013°11'0 0.0
2014-Sep-21 03:10N 32°57' E 013°11'0 0.0
2014-Sep-21 02:04N 32°57' E 013°11'0 0.0
2014-Sep-21 01:28N 32°57' E 013°11'0 0.1
2014-Sep-21 00:31N 32°56' E 013°11'0 0.0
2014-Sep-20 23:31N 32°56' E 013°11'0 0.0
2014-Sep-20 21:25N 32°57' E 013°11'0 0.0
2014-Sep-20 20:28N 32°57' E 013°11'43 8.4
2014-Sep-20 15:17N 32°58' E 014°03'2816.3
2014-Sep-20 13:33N 32°46' E 014°33'1817.0
2014-Sep-20 12:30N 32°39' E 014°53'1616.5
2014-Sep-20 11:33N 32°33' E 015°10'1111.0
2014-Sep-20 10:33N 32°22' E 015°13'0 0.0
2014-Sep-18 23:11N 32°22' E 015°13'4 0.2
2014-Sep-18 02:33N 32°22' E 015°18'0 0.0
2014-Sep-18 01:09N 32°22' E 015°18'0 0.0
2014-Sep-17 16:27N 32°22' E 015°18'0 0.0
2014-Sep-16 20:27N 32°22' E 015°18'0 0.0
2014-Sep-16 19:27N 32°22' E 015°18'0 0.0
2014-Sep-16 16:27N 32°22' E 015°18'0 0.0
2014-Sep-16 15:27N 32°22' E 015°18'0 0.0
2014-Sep-16 14:33N 32°22' E 015°18'0 0.0
2014-Sep-16 13:21N 32°22' E 015°18'0 0.0
2014-Sep-16 07:24N 32°22' E 015°18'0 0.0
2014-Sep-16 04:12N 32°22' E 015°18'0 0.0
2014-Sep-16 02:12N 32°22' E 015°18'0 0.0
2014-Sep-16 01:15N 32°22' E 015°18'0 0.0
2014-Sep-16 00:09N 32°22' E 015°18'0 0.0
2014-Sep-15 23:27N 32°22' E 015°18'0 0.0
2014-Sep-15 22:12N 32°22' E 015°18'0 0.0
2014-Sep-15 20:30N 32°22' E 015°18'0 0.0
2014-Sep-15 18:33N 32°22' E 015°18'0 0.0
2014-Sep-15 17:27N 32°22' E 015°18'0 0.0
2014-Sep-15 15:24N 32°22' E 015°18'0 0.0
2014-Sep-15 14:33N 32°22' E 015°18'0 0.0
2014-Sep-15 13:33N 32°22' E 015°18'0 0.0
2014-Sep-15 12:33N 32°22' E 015°18'0 0.0
2014-Sep-15 11:33N 32°22' E 015°18'0 0.0
2014-Sep-15 10:24N 32°22' E 015°18'0 0.0
2014-Sep-15 07:18N 32°22' E 015°18'0 0.0
2014-Sep-15 06:27N 32°22' E 015°18'0 0.0
2014-Sep-14 21:33N 32°22' E 015°18'0 0.0
2014-Sep-14 20:31N 32°22' E 015°18'0 0.0
2014-Sep-14 19:14N 32°22' E 015°18'0 0.0
2014-Sep-14 17:34N 32°22' E 015°18'0 0.0
2014-Sep-14 16:33N 32°22' E 015°18'0 0.0
2014-Sep-14 15:33N 32°22' E 015°18'0 0.0
2014-Sep-14 14:19N 32°22' E 015°18'0 0.0
2014-Sep-14 13:21N 32°22' E 015°18'0 0.0
2014-Sep-14 12:33N 32°22' E 015°18'7612.2
2014-Sep-14 06:17N 33°38' E 015°09'1114.7
2014-Sep-14 05:33N 33°49' E 015°08'1514.7
2014-Sep-14 04:32N 34°04' E 015°06'4514.7
2014-Sep-14 01:29N 34°48' E 015°01'5714.6
2014-Sep-13 21:33N 35°46' E 014°57'1111.3
2014-Sep-13 20:33N 35°57' E 014°59'7 5.8
2014-Sep-13 19:22N 35°59' E 014°51'0 0.2
2014-Sep-13 18:30N 35°59' E 014°51'0 0.0
2014-Sep-13 17:27N 35°59' E 014°51'0 0.0
2014-Sep-13 16:21N 35°59' E 014°51'6 6.9
2014-Sep-13 15:31N 35°58' E 014°44'5 5.6
2014-Sep-13 14:33N 35°57' E 014°38'1 0.9
2014-Sep-13 13:33N 35°58' E 014°37'9 9.0
2014-Sep-13 12:33N 35°52' E 014°45'4 4.1
2014-Sep-13 11:32N 35°50' E 014°49'0 0.0
2014-Sep-13 10:32N 35°49' E 014°49'0 0.0
2014-Sep-13 08:20N 35°49' E 014°49'0 0.0
2014-Sep-13 06:29N 35°49' E 014°49'0 0.0
2014-Sep-13 04:26N 35°49' E 014°49'0 0.0
2014-Sep-13 03:11N 35°49' E 014°49'0 0.0
2014-Sep-13 02:32N 35°49' E 014°49'0 0.0
2014-Sep-13 01:29N 35°49' E 014°49'0 0.0
2014-Sep-13 00:32N 35°49' E 014°49'0 0.0
2014-Sep-12 23:29N 35°49' E 014°49'0 0.0
2014-Sep-12 22:08N 35°49' E 014°49'0 0.0
2014-Sep-12 21:29N 35°49' E 014°49'0 0.1
2014-Sep-12 20:18N 35°49' E 014°49'911.9
2014-Sep-12 19:33N 35°41' E 014°45'1414.5
2014-Sep-12 18:33N 35°28' E 014°37'5814.4
2014-Sep-12 14:30N 34°41' E 013°55'1814.3
2014-Sep-12 13:15N 34°28' E 013°40'4514.4
2014-Sep-12 10:05N 33°52' E 013°08'2514.1
2014-Sep-12 08:18N 33°34' E 012°46'1114.4
2014-Sep-12 07:33N 33°26' E 012°37'1414.1
2014-Sep-12 06:33N 33°18' E 012°23'10 3.5
2014-Sep-12 03:33N 33°12' E 012°33'1614.4
2014-Sep-12 02:28N 32°60' E 012°22'  

Dump ship's entire track history